createdAt,value
2019-06-26T00:00:36.372Z,99.90
2019-06-26T00:03:04.943Z,99.90
2019-06-26T00:05:34.109Z,99.90
2019-06-26T00:08:03.887Z,99.90
2019-06-26T00:10:33.488Z,99.90
2019-06-26T00:13:03.261Z,99.90
2019-06-26T00:15:32.692Z,99.90
2019-06-26T00:18:01.923Z,99.90
2019-06-26T00:20:31.659Z,99.90
2019-06-26T00:23:01.327Z,99.90
2019-06-26T00:25:30.797Z,99.90
2019-06-26T00:28:00.842Z,99.90
2019-06-26T00:30:30.485Z,99.90
2019-06-26T00:32:59.987Z,99.90
2019-06-26T00:35:29.457Z,99.90
2019-06-26T00:37:58.943Z,99.90
2019-06-26T00:40:28.724Z,99.90
2019-06-26T00:42:58.158Z,99.90
2019-06-26T00:45:27.425Z,99.90
2019-06-26T00:47:57.108Z,99.90
2019-06-26T00:50:26.639Z,99.90
2019-06-26T00:52:56.080Z,99.90
2019-06-26T00:55:26.793Z,99.90
2019-06-26T00:57:56.788Z,99.90
2019-06-26T01:00:32.032Z,99.90
2019-06-26T01:03:01.206Z,99.90
2019-06-26T01:05:31.031Z,99.90
2019-06-26T01:08:00.639Z,99.90
2019-06-26T01:10:30.098Z,99.90
2019-06-26T01:12:59.220Z,99.90
2019-06-26T01:15:28.376Z,99.90
2019-06-26T01:17:57.515Z,99.90
2019-06-26T01:20:26.915Z,99.90
2019-06-26T01:22:56.730Z,99.90
2019-06-26T01:25:26.048Z,99.90
2019-06-26T01:27:56.987Z,99.90
2019-06-26T01:30:26.671Z,99.90
2019-06-26T01:32:55.933Z,99.90
2019-06-26T01:35:25.498Z,99.90
2019-06-26T01:37:55.413Z,99.90
2019-06-26T01:40:24.886Z,99.90
2019-06-26T01:42:53.995Z,99.90
2019-06-26T01:45:23.952Z,99.90
2019-06-26T01:47:53.440Z,99.90
2019-06-26T01:50:23.143Z,99.90
2019-06-26T01:52:52.959Z,99.90
2019-06-26T01:55:22.536Z,99.90
2019-06-26T01:57:52.149Z,99.90
2019-06-26T02:00:21.737Z,99.90
2019-06-26T02:02:51.153Z,99.80
2019-06-26T02:05:21.025Z,99.70
2019-06-26T02:07:50.661Z,99.70
2019-06-26T02:10:20.696Z,99.60
2019-06-26T02:12:50.223Z,99.90
2019-06-26T02:15:20.035Z,99.90
2019-06-26T02:17:49.290Z,99.90
2019-06-26T02:20:18.761Z,99.90
2019-06-26T02:22:49.631Z,99.90
2019-06-26T02:25:21.166Z,99.90
2019-06-26T02:27:50.681Z,99.90
2019-06-26T02:30:21.096Z,99.90
2019-06-26T02:32:51.659Z,99.90
2019-06-26T02:35:21.253Z,99.90
2019-06-26T02:37:50.860Z,99.90
2019-06-26T02:40:20.673Z,99.90
2019-06-26T02:42:50.184Z,99.90
2019-06-26T02:45:19.623Z,99.90
2019-06-26T02:47:49.386Z,99.90
2019-06-26T02:50:19.083Z,99.90
2019-06-26T02:52:51.172Z,99.90
2019-06-26T02:55:20.645Z,99.90
2019-06-26T02:57:50.793Z,99.90
2019-06-26T03:00:20.005Z,99.90
2019-06-26T03:02:49.468Z,99.90
2019-06-26T03:05:18.680Z,99.90
2019-06-26T03:07:48.502Z,99.90
2019-06-26T03:10:18.237Z,99.90
2019-06-26T03:12:47.895Z,99.90
2019-06-26T03:15:17.924Z,99.90
2019-06-26T03:17:55.293Z,99.90
2019-06-26T03:20:22.290Z,99.90
2019-06-26T03:22:52.194Z,99.90
2019-06-26T03:25:22.238Z,99.90
2019-06-26T03:27:52.088Z,99.90
2019-06-26T03:30:21.521Z,99.90
2019-06-26T03:32:50.925Z,99.90
2019-06-26T03:35:20.551Z,99.90
2019-06-26T03:37:50.025Z,99.90
2019-06-26T03:40:20.344Z,99.90
2019-06-26T03:42:49.773Z,99.90
2019-06-26T03:45:25.830Z,99.90
2019-06-26T03:47:51.003Z,99.90
2019-06-26T03:50:20.121Z,99.90
2019-06-26T03:52:49.297Z,99.90
2019-06-26T03:55:18.645Z,99.90
2019-06-26T03:57:48.345Z,99.90
2019-06-26T04:00:22.895Z,99.90
2019-06-26T04:02:53.843Z,99.90
2019-06-26T04:05:23.506Z,99.90
2019-06-26T04:07:53.583Z,99.90
2019-06-26T04:10:23.257Z,99.90
2019-06-26T04:12:53.043Z,99.90
2019-06-26T04:15:40.939Z,99.90
2019-06-26T04:17:57.068Z,99.90
2019-06-26T04:20:27.151Z,99.90
2019-06-26T04:22:56.350Z,99.90
2019-06-26T04:25:25.601Z,99.90
2019-06-26T04:27:55.934Z,99.90
2019-06-26T04:30:25.170Z,99.90
2019-06-26T04:32:55.251Z,99.90
2019-06-26T04:35:26.507Z,99.90
2019-06-26T04:37:56.407Z,99.80
2019-06-26T04:40:25.974Z,99.20
2019-06-26T04:42:57.502Z,98.80
2019-06-26T04:45:27.035Z,97.80
2019-06-26T04:47:56.833Z,97.10
2019-06-26T04:50:27.165Z,96.50
2019-06-26T04:52:57.008Z,96.20
2019-06-26T04:55:28.788Z,95.70
2019-06-26T04:57:57.770Z,95.50
2019-06-26T05:00:27.333Z,95.30
2019-06-26T05:02:58.374Z,96.70
2019-06-26T05:05:39.681Z,97.00
2019-06-26T05:08:05.483Z,97.50
2019-06-26T05:10:34.669Z,97.50
2019-06-26T05:13:05.529Z,97.30
2019-06-26T05:15:35.101Z,97.40
2019-06-26T05:18:04.523Z,97.10
2019-06-26T05:20:34.378Z,96.90
2019-06-26T05:23:04.150Z,96.80
2019-06-26T05:25:34.072Z,96.80
2019-06-26T05:28:03.899Z,96.60
2019-06-26T05:30:33.414Z,96.00
2019-06-26T05:33:03.706Z,95.70
2019-06-26T05:35:35.213Z,95.60
2019-06-26T05:38:04.737Z,94.90
2019-06-26T05:40:35.300Z,94.20
2019-06-26T05:43:05.207Z,93.80
2019-06-26T05:45:34.601Z,93.30
2019-06-26T05:48:04.019Z,93.70
2019-06-26T05:50:34.163Z,93.90
2019-06-26T05:53:05.673Z,93.50
2019-06-26T05:55:35.114Z,93.00
2019-06-26T05:58:05.061Z,93.10
2019-06-26T06:00:34.471Z,93.00
2019-06-26T06:03:03.594Z,92.70
2019-06-26T06:05:34.304Z,92.00
2019-06-26T06:08:03.521Z,91.30
2019-06-26T06:10:32.970Z,91.70
2019-06-26T06:13:02.569Z,91.60
2019-06-26T06:15:32.208Z,91.20
2019-06-26T06:18:02.245Z,91.40
2019-06-26T06:20:37.807Z,91.20
2019-06-26T06:23:07.394Z,90.60
2019-06-26T06:25:36.992Z,90.90
2019-06-26T06:28:06.559Z,90.80
2019-06-26T06:30:36.314Z,90.50
2019-06-26T06:33:05.758Z,90.00
2019-06-26T06:35:35.067Z,89.70
2019-06-26T06:38:05.025Z,90.00
2019-06-26T06:40:35.222Z,90.00
2019-06-26T06:43:04.615Z,90.00
2019-06-26T06:45:35.206Z,90.50
2019-06-26T06:48:05.225Z,90.60
2019-06-26T06:50:34.910Z,90.00
2019-06-26T06:53:04.131Z,89.70
2019-06-26T06:55:33.525Z,89.60
2019-06-26T06:58:03.052Z,89.70
2019-06-26T07:00:32.609Z,89.90
2019-06-26T07:03:02.073Z,89.50
2019-06-26T07:05:31.555Z,88.40
2019-06-26T07:08:00.598Z,88.20
2019-06-26T07:10:30.067Z,88.20
2019-06-26T07:12:59.271Z,89.10
2019-06-26T07:15:29.334Z,88.20
2019-06-26T07:17:58.941Z,86.70
2019-06-26T07:20:28.578Z,85.70
2019-06-26T07:23:02.766Z,85.70
2019-06-26T07:25:32.505Z,85.10
2019-06-26T07:28:02.304Z,84.00
2019-06-26T07:30:31.726Z,83.90
2019-06-26T07:33:01.412Z,83.50
2019-06-26T07:35:33.161Z,84.60
2019-06-26T07:38:03.547Z,83.30
2019-06-26T07:40:33.323Z,82.00
2019-06-26T07:43:02.988Z,81.70
2019-06-26T07:45:32.843Z,81.10
2019-06-26T07:48:05.527Z,81.70
2019-06-26T07:50:35.201Z,82.20
2019-06-26T07:53:06.442Z,81.10
2019-06-26T07:55:35.864Z,79.30
2019-06-26T07:58:05.691Z,78.00
2019-06-26T08:00:37.533Z,76.00
2019-06-26T08:03:06.957Z,74.60
2019-06-26T08:05:36.657Z,74.90
2019-06-26T08:08:07.558Z,73.30
2019-06-26T08:10:36.756Z,73.50
2019-06-26T08:13:06.619Z,71.10
2019-06-26T08:15:36.367Z,70.30
2019-06-26T08:18:08.867Z,72.10
2019-06-26T08:20:55.130Z,71.60
2019-06-26T08:23:09.843Z,70.10
2019-06-26T08:25:39.271Z,71.70
2019-06-26T08:28:09.359Z,71.50
2019-06-26T08:30:39.213Z,71.10
2019-06-26T08:33:08.912Z,69.30
2019-06-26T08:35:38.429Z,69.70
2019-06-26T08:38:11.365Z,69.10
2019-06-26T08:40:39.771Z,67.60
2019-06-26T08:43:09.883Z,65.40
2019-06-26T08:45:39.334Z,63.60
2019-06-26T08:48:22.975Z,61.20
2019-06-26T08:50:39.923Z,58.80
2019-06-26T08:53:10.269Z,57.20
2019-06-26T08:55:39.816Z,58.10
2019-06-26T08:58:09.396Z,57.70
2019-06-26T09:00:39.011Z,58.30
2019-06-26T09:03:08.461Z,58.00
2019-06-26T09:05:47.857Z,57.40
2019-06-26T09:08:11.205Z,57.50
2019-06-26T09:10:45.070Z,56.70
2019-06-26T09:13:14.269Z,55.20
2019-06-26T09:15:49.706Z,54.80
2019-06-26T09:18:31.123Z,54.40
2019-06-26T09:20:48.572Z,54.70
2019-06-26T09:23:18.214Z,55.50
2019-06-26T09:25:47.606Z,54.10
2019-06-26T09:28:18.113Z,52.60
2019-06-26T09:30:47.590Z,51.90
2019-06-26T09:33:17.105Z,50.70
2019-06-26T09:35:47.003Z,50.50
2019-06-26T09:38:16.950Z,48.70
2019-06-26T09:40:45.999Z,47.10
2019-06-26T09:43:17.579Z,45.40
2019-06-26T09:45:47.021Z,42.80
2019-06-26T09:48:16.422Z,42.00
2019-06-26T09:50:46.080Z,40.30
2019-06-26T09:53:15.464Z,38.40
2019-06-26T09:55:44.902Z,35.70
2019-06-26T09:58:14.652Z,34.80
2019-06-26T10:00:44.883Z,32.80
2019-06-26T10:03:14.591Z,32.80
2019-06-26T10:05:44.363Z,32.80
2019-06-26T10:08:13.508Z,30.30
2019-06-26T10:10:43.863Z,29.90
2019-06-26T10:13:13.679Z,30.70
2019-06-26T10:15:43.744Z,30.50
2019-06-26T10:18:16.966Z,31.40
2019-06-26T10:20:46.388Z,31.70
2019-06-26T10:23:15.996Z,34.20
2019-06-26T10:25:45.722Z,33.90
2019-06-26T10:28:15.555Z,34.00
2019-06-26T10:30:45.229Z,33.80
2019-06-26T10:33:14.494Z,34.50
2019-06-26T10:35:43.764Z,34.00
2019-06-26T10:38:13.170Z,32.70
2019-06-26T10:40:43.182Z,34.10
2019-06-26T10:43:12.840Z,34.90
2019-06-26T10:45:43.030Z,36.50
2019-06-26T10:48:12.738Z,39.10
2019-06-26T10:50:51.967Z,42.10
2019-06-26T10:53:19.940Z,43.50
2019-06-26T10:55:49.679Z,45.20
2019-06-26T10:58:21.514Z,46.60
2019-06-26T11:00:50.978Z,47.40
2019-06-26T11:03:20.547Z,46.60
2019-06-26T11:05:50.154Z,47.90
2019-06-26T11:08:24.593Z,48.60
2019-06-26T11:10:54.677Z,47.90
2019-06-26T11:13:24.491Z,48.50
2019-06-26T11:15:54.214Z,48.40
2019-06-26T11:18:24.706Z,48.90
2019-06-26T11:20:53.842Z,49.50
2019-06-26T11:23:24.504Z,49.50
2019-06-26T11:25:53.868Z,49.60
2019-06-26T11:28:23.403Z,50.80
2019-06-26T11:30:53.658Z,50.40
2019-06-26T11:33:23.133Z,50.40
2019-06-26T11:35:53.802Z,49.40
2019-06-26T11:38:23.776Z,49.90
2019-06-26T11:40:53.612Z,51.00
2019-06-26T11:43:23.688Z,51.50
2019-06-26T11:45:56.044Z,51.80
2019-06-26T11:48:25.343Z,52.60
2019-06-26T11:50:54.693Z,53.00
2019-06-26T11:53:24.246Z,53.20
2019-06-26T11:55:53.849Z,53.70
2019-06-26T11:58:26.026Z,53.70
2019-06-26T12:00:56.534Z,53.10
2019-06-26T12:03:26.690Z,52.40
2019-06-26T12:06:11.951Z,52.40
2019-06-26T12:08:29.461Z,53.50
2019-06-26T12:10:58.857Z,54.30
2019-06-26T12:13:28.515Z,54.20
2019-06-26T12:15:58.810Z,54.80
2019-06-26T12:18:28.687Z,54.90
2019-06-26T12:20:59.369Z,54.50
2019-06-26T12:23:28.642Z,54.70
2019-06-26T12:26:01.215Z,55.40
2019-06-26T12:28:32.676Z,55.80
2019-06-26T12:31:02.254Z,55.50
2019-06-26T12:33:32.648Z,55.80
2019-06-26T12:36:02.070Z,55.40
2019-06-26T12:38:32.189Z,54.60
2019-06-26T12:41:01.912Z,54.50
2019-06-26T12:43:32.577Z,53.30
2019-06-26T12:46:02.453Z,54.00
2019-06-26T12:48:32.976Z,54.60
2019-06-26T12:51:03.124Z,53.60
2019-06-26T12:53:35.577Z,53.40
2019-06-26T12:56:08.204Z,53.70
2019-06-26T12:58:37.890Z,53.90
2019-06-26T13:01:09.932Z,53.00
2019-06-26T13:03:39.614Z,53.10
2019-06-26T13:06:09.654Z,53.50
2019-06-26T13:08:40.178Z,52.30
2019-06-26T13:11:09.976Z,52.40
2019-06-26T13:13:39.166Z,52.80
2019-06-26T13:16:09.068Z,53.30
2019-06-26T13:18:39.315Z,53.70
2019-06-26T13:21:09.156Z,53.30
2019-06-26T13:23:40.066Z,53.50
2019-06-26T13:26:09.622Z,53.60
2019-06-26T13:28:38.992Z,54.20
2019-06-26T13:31:09.036Z,54.80
2019-06-26T13:33:39.311Z,55.70
2019-06-26T13:36:08.602Z,54.40
2019-06-26T13:38:38.197Z,53.50
2019-06-26T13:41:08.016Z,54.30
2019-06-26T13:43:37.909Z,54.70
2019-06-26T13:46:07.798Z,55.30
2019-06-26T13:48:37.675Z,55.60
2019-06-26T13:51:09.924Z,53.80
2019-06-26T13:53:38.018Z,54.00
2019-06-26T13:56:07.433Z,51.20
2019-06-26T13:58:36.589Z,51.00
2019-06-26T14:01:05.757Z,51.20
2019-06-26T14:03:35.591Z,51.80
2019-06-26T14:06:05.062Z,52.40
2019-06-26T14:08:34.986Z,52.20
2019-06-26T14:11:07.329Z,52.30
2019-06-26T14:13:35.701Z,52.30
2019-06-26T14:16:05.593Z,51.90
2019-06-26T14:18:36.868Z,51.90
2019-06-26T14:21:06.880Z,51.20
2019-06-26T14:23:37.970Z,50.60
2019-06-26T14:26:11.447Z,50.80
2019-06-26T14:28:40.982Z,51.40
2019-06-26T14:31:10.557Z,51.60
2019-06-26T14:33:40.825Z,51.40
2019-06-26T14:36:10.575Z,51.20
2019-06-26T14:38:40.420Z,51.20
2019-06-26T14:41:10.394Z,50.40
2019-06-26T14:43:40.024Z,50.10
2019-06-26T14:46:13.172Z,50.90
2019-06-26T14:48:42.601Z,50.10
2019-06-26T14:51:12.120Z,50.60
2019-06-26T14:53:41.239Z,49.60
2019-06-26T14:56:11.453Z,49.80
2019-06-26T14:58:41.999Z,50.10
2019-06-26T15:01:11.647Z,50.00
2019-06-26T15:03:40.860Z,49.70
2019-06-26T15:06:16.557Z,50.30
2019-06-26T15:08:41.418Z,48.80
2019-06-26T15:11:11.266Z,49.50
2019-06-26T15:13:40.694Z,49.60
2019-06-26T15:16:09.953Z,49.20
2019-06-26T15:18:39.118Z,48.90
2019-06-26T15:21:08.623Z,48.70
2019-06-26T15:23:37.719Z,49.20
2019-06-26T15:26:06.932Z,49.20
2019-06-26T15:28:36.712Z,49.50
2019-06-26T15:31:06.005Z,50.00
2019-06-26T15:33:36.789Z,50.10
2019-06-26T15:36:07.585Z,50.20
2019-06-26T15:38:36.740Z,51.00
2019-06-26T15:41:06.282Z,50.80
2019-06-26T15:43:36.006Z,49.80
2019-06-26T15:46:06.101Z,50.00
2019-06-26T15:48:35.838Z,50.20
2019-06-26T15:51:05.480Z,50.80
2019-06-26T15:53:34.663Z,50.50
2019-06-26T15:56:03.935Z,50.70
2019-06-26T15:58:33.832Z,51.10
2019-06-26T16:01:04.086Z,51.70
2019-06-26T16:03:34.125Z,51.20
2019-06-26T16:06:03.586Z,52.10
2019-06-26T16:08:32.991Z,53.10
2019-06-26T16:11:02.747Z,53.10
2019-06-26T16:13:32.652Z,53.30
2019-06-26T16:16:02.622Z,53.30
2019-06-26T16:18:45.469Z,52.70
2019-06-26T16:21:14.628Z,52.30
2019-06-26T16:23:43.794Z,52.10
2019-06-26T16:26:13.666Z,52.00
2019-06-26T16:28:43.763Z,52.10
2019-06-26T16:31:13.423Z,53.10
2019-06-26T16:33:43.204Z,53.10
2019-06-26T16:36:12.753Z,52.80
2019-06-26T16:38:42.095Z,51.10
2019-06-26T16:41:11.512Z,50.80
2019-06-26T16:43:41.667Z,51.40
2019-06-26T16:46:11.330Z,51.40
2019-06-26T16:48:40.681Z,51.20
2019-06-26T16:51:10.435Z,49.40
2019-06-26T16:53:39.644Z,49.00
2019-06-26T16:56:09.021Z,48.10
2019-06-26T16:58:38.639Z,48.00
2019-06-26T17:01:08.848Z,48.70
2019-06-26T17:03:38.339Z,48.00
2019-06-26T17:06:08.095Z,49.90
2019-06-26T17:08:38.822Z,51.10
2019-06-26T17:11:08.126Z,51.20
2019-06-26T17:13:39.606Z,51.70
2019-06-26T17:16:08.679Z,51.60
2019-06-26T17:18:38.043Z,52.90
2019-06-26T17:21:08.198Z,53.40
2019-06-26T17:23:37.679Z,52.40
2019-06-26T17:26:07.640Z,52.00
2019-06-26T17:28:37.123Z,53.10
2019-06-26T17:31:06.963Z,53.60
2019-06-26T17:33:35.952Z,53.40
2019-06-26T17:36:05.150Z,54.60
2019-06-26T17:38:34.879Z,54.40
2019-06-26T17:41:05.236Z,54.40
2019-06-26T17:43:34.552Z,54.90
2019-06-26T17:46:03.663Z,54.50
2019-06-26T17:48:33.065Z,54.80
2019-06-26T17:51:02.801Z,55.30
2019-06-26T17:53:32.666Z,56.30
2019-06-26T17:56:01.978Z,55.50
2019-06-26T17:58:31.371Z,55.70
2019-06-26T18:01:00.545Z,56.40
2019-06-26T18:03:29.494Z,56.30
2019-06-26T18:05:58.958Z,57.60
2019-06-26T18:08:28.491Z,57.20
2019-06-26T18:10:58.105Z,57.40
2019-06-26T18:13:27.269Z,56.90
2019-06-26T18:15:56.377Z,58.00
2019-06-26T18:18:26.212Z,58.80
2019-06-26T18:20:55.366Z,59.30
2019-06-26T18:23:37.083Z,59.60
2019-06-26T18:26:11.937Z,59.70
2019-06-26T18:28:27.095Z,60.00
2019-06-26T18:30:56.402Z,60.40
2019-06-26T18:33:26.684Z,60.40
2019-06-26T18:35:56.178Z,61.30
2019-06-26T18:38:28.818Z,61.30
2019-06-26T18:40:58.173Z,61.80
2019-06-26T18:43:27.456Z,62.80
2019-06-26T18:45:56.422Z,63.50
2019-06-26T18:48:27.013Z,64.00
2019-06-26T18:50:56.894Z,64.30
2019-06-26T18:53:26.487Z,65.10
2019-06-26T18:55:58.871Z,66.40
2019-06-26T18:58:30.727Z,66.00
2019-06-26T19:00:59.641Z,66.40
2019-06-26T19:03:28.810Z,66.50
2019-06-26T19:05:58.009Z,66.30
2019-06-26T19:08:27.727Z,66.20
2019-06-26T19:10:56.968Z,66.90
2019-06-26T19:13:26.634Z,67.00
2019-06-26T19:15:56.040Z,67.20
2019-06-26T19:18:26.508Z,67.70
2019-06-26T19:20:56.219Z,68.70
2019-06-26T19:23:25.391Z,69.50
2019-06-26T19:25:54.975Z,70.20
2019-06-26T19:28:24.491Z,70.90
2019-06-26T19:30:54.279Z,71.30
2019-06-26T19:33:23.706Z,72.10
2019-06-26T19:35:53.314Z,72.70
2019-06-26T19:38:22.699Z,73.60
2019-06-26T19:40:52.470Z,74.30
2019-06-26T19:43:21.770Z,74.80
2019-06-26T19:45:51.581Z,74.90
2019-06-26T19:48:21.028Z,74.90
2019-06-26T19:50:50.233Z,75.10
2019-06-26T19:53:20.067Z,75.20
2019-06-26T19:55:49.691Z,76.00
2019-06-26T19:58:21.508Z,75.60
2019-06-26T20:00:50.595Z,76.60
2019-06-26T20:03:19.975Z,76.80
2019-06-26T20:05:49.445Z,76.00
2019-06-26T20:08:21.190Z,76.30
2019-06-26T20:10:50.557Z,76.60
2019-06-26T20:13:20.547Z,76.90
2019-06-26T20:15:49.939Z,77.80
2019-06-26T20:18:19.554Z,78.10
2019-06-26T20:20:49.513Z,78.50
2019-06-26T20:23:19.472Z,78.60
2019-06-26T20:25:49.039Z,79.30
2019-06-26T20:28:18.347Z,79.10
2019-06-26T20:30:49.292Z,79.50
2019-06-26T20:33:19.759Z,79.90
2019-06-26T20:35:49.415Z,80.00
2019-06-26T20:38:18.893Z,80.00
2019-06-26T20:40:50.596Z,80.30
2019-06-26T20:43:20.026Z,80.70
2019-06-26T20:45:49.797Z,81.20
2019-06-26T20:48:19.068Z,81.00
2019-06-26T20:50:48.199Z,81.40
2019-06-26T20:53:27.807Z,81.40
2019-06-26T20:55:55.507Z,81.20
2019-06-26T20:58:27.602Z,81.70
2019-06-26T21:00:57.740Z,81.60
2019-06-26T21:03:27.312Z,82.20
2019-06-26T21:05:57.081Z,82.90
2019-06-26T21:08:29.765Z,82.30
2019-06-26T21:10:59.386Z,82.70
2019-06-26T21:13:29.670Z,82.20
2019-06-26T21:16:00.129Z,81.40
2019-06-26T21:18:30.463Z,81.50
2019-06-26T21:21:00.708Z,83.00
2019-06-26T21:23:42.139Z,82.50
2019-06-26T21:26:11.589Z,83.20
2019-06-26T21:28:43.090Z,83.10
2019-06-26T21:31:12.966Z,83.90
2019-06-26T21:33:42.702Z,84.40
2019-06-26T21:36:12.937Z,84.60
2019-06-26T21:38:42.588Z,84.60
2019-06-26T21:41:16.044Z,85.10
2019-06-26T21:43:45.594Z,85.20
2019-06-26T21:46:15.109Z,85.40
2019-06-26T21:48:45.202Z,85.60
2019-06-26T21:51:14.822Z,86.00
2019-06-26T21:53:43.940Z,86.30
2019-06-26T21:56:14.194Z,86.80
2019-06-26T21:58:43.855Z,87.20
2019-06-26T22:01:13.544Z,87.60
2019-06-26T22:03:43.215Z,87.80
2019-06-26T22:06:12.970Z,87.90
2019-06-26T22:08:42.059Z,87.80
2019-06-26T22:11:11.630Z,87.30
2019-06-26T22:13:41.579Z,87.00
2019-06-26T22:16:12.329Z,87.50
2019-06-26T22:18:41.922Z,88.10
2019-06-26T22:21:11.383Z,88.50
2019-06-26T22:23:41.376Z,89.00
2019-06-26T22:26:14.141Z,89.90
2019-06-26T22:28:43.018Z,90.10
2019-06-26T22:31:12.793Z,90.90
2019-06-26T22:33:44.185Z,91.10
2019-06-26T22:36:13.596Z,91.40
2019-06-26T22:38:45.013Z,91.70
2019-06-26T22:41:14.604Z,91.70
2019-06-26T22:43:44.383Z,91.70
2019-06-26T22:46:14.281Z,91.80
2019-06-26T22:48:43.906Z,91.70
2019-06-26T22:51:14.110Z,92.00
2019-06-26T22:53:43.616Z,92.10
2019-06-26T22:56:13.345Z,91.90
2019-06-26T22:58:42.457Z,91.90
2019-06-26T23:01:11.819Z,92.00
2019-06-26T23:03:41.732Z,92.00
2019-06-26T23:06:11.002Z,92.10
2019-06-26T23:08:40.578Z,92.10
2019-06-26T23:11:10.040Z,92.10
2019-06-26T23:13:39.842Z,92.10
2019-06-26T23:16:09.333Z,92.20
2019-06-26T23:18:38.494Z,92.20
2019-06-26T23:21:07.624Z,92.30
2019-06-26T23:23:38.629Z,92.40
2019-06-26T23:26:23.068Z,92.70
2019-06-26T23:28:39.300Z,92.60
2019-06-26T23:31:12.581Z,92.70
2019-06-26T23:33:42.317Z,92.60
2019-06-26T23:36:11.688Z,93.20
2019-06-26T23:38:40.808Z,92.90
2019-06-26T23:41:09.998Z,92.90
2019-06-26T23:43:42.615Z,93.00
2019-06-26T23:46:12.405Z,93.00
2019-06-26T23:48:45.906Z,93.10
2019-06-26T23:51:15.812Z,93.30
2019-06-26T23:54:02.662Z,93.60
2019-06-26T23:56:40.467Z,93.80
2019-06-26T23:59:03.059Z,93.80
